createdAt,value
2019-05-30T00:00:06.755Z,3.58
2019-05-30T00:02:28.692Z,4.90
2019-05-30T00:05:02.990Z,4.40
2019-05-30T00:07:36.610Z,4.05
2019-05-30T00:10:10.015Z,3.33
2019-05-30T00:12:43.407Z,3.90
2019-05-30T00:15:17.519Z,3.87
2019-05-30T00:17:50.961Z,4.72
2019-05-30T00:20:24.336Z,3.72
2019-05-30T00:22:58.825Z,3.65
2019-05-30T00:25:32.404Z,3.67
2019-05-30T00:28:05.930Z,3.80
2019-05-30T00:30:39.367Z,3.80
2019-05-30T00:33:12.811Z,3.65
2019-05-30T00:35:46.236Z,5.45
2019-05-30T00:38:20.662Z,4.40
2019-05-30T00:40:54.052Z,5.55
2019-05-30T00:43:27.493Z,5.10
2019-05-30T00:46:02.085Z,6.53
2019-05-30T00:48:35.550Z,5.35
2019-05-30T00:51:08.958Z,4.10
2019-05-30T00:53:42.339Z,4.33
2019-05-30T00:56:15.722Z,5.33
2019-05-30T00:58:49.177Z,4.30
2019-05-30T01:01:22.640Z,4.37
2019-05-30T01:03:56.728Z,4.00
2019-05-30T01:06:31.524Z,3.70
2019-05-30T01:09:05.443Z,4.92
2019-05-30T01:11:38.890Z,4.17
2019-05-30T01:14:12.308Z,4.12
2019-05-30T01:16:45.730Z,3.52
2019-05-30T01:19:19.182Z,5.08
2019-05-30T01:21:54.278Z,4.87
2019-05-30T01:24:27.801Z,4.35
2019-05-30T01:27:01.365Z,4.15
2019-05-30T01:29:34.884Z,3.37
2019-05-30T01:32:25.625Z,4.00
2019-05-30T01:34:59.936Z,4.15
2019-05-30T01:37:33.369Z,3.55
2019-05-30T01:40:08.716Z,4.05
2019-05-30T01:42:43.114Z,3.62
2019-05-30T01:45:16.661Z,4.65
2019-05-30T01:47:50.084Z,3.83
2019-05-30T01:50:23.829Z,3.33
2019-05-30T01:52:58.378Z,3.87
2019-05-30T01:55:31.936Z,3.55
2019-05-30T01:58:05.352Z,3.30
2019-05-30T02:00:41.069Z,4.40
2019-05-30T02:03:14.576Z,3.35
2019-05-30T02:05:48.141Z,3.80
2019-05-30T02:08:21.858Z,3.90
2019-05-30T02:10:55.261Z,3.67
2019-05-30T02:13:28.672Z,3.00
2019-05-30T02:16:03.634Z,3.22
2019-05-30T02:18:37.209Z,3.05
2019-05-30T02:21:10.671Z,2.60
2019-05-30T02:23:44.144Z,3.15
2019-05-30T02:26:17.664Z,2.90
2019-05-30T02:28:51.073Z,5.37
2019-05-30T02:31:38.439Z,6.60
2019-05-30T02:34:00.979Z,5.42
2019-05-30T02:36:34.668Z,4.22
2019-05-30T02:39:11.367Z,3.77
2019-05-30T02:41:44.648Z,4.30
2019-05-30T02:44:18.021Z,4.55
2019-05-30T02:46:53.111Z,5.70
2019-05-30T02:49:26.597Z,5.30
2019-05-30T02:52:00.028Z,4.92
2019-05-30T02:54:33.462Z,5.53
2019-05-30T02:57:07.901Z,5.05
2019-05-30T02:59:41.903Z,5.65
2019-05-30T03:02:17.613Z,5.08
2019-05-30T03:04:50.462Z,5.83
2019-05-30T03:07:24.071Z,12.78
2019-05-30T03:09:57.721Z,19.57
2019-05-30T03:12:31.384Z,55.03
2019-05-30T03:15:07.358Z,37.28
2019-05-30T03:18:21.060Z,13.95
2019-05-30T03:20:54.590Z,11.08
2019-05-30T03:23:28.583Z,16.27
2019-05-30T03:26:02.543Z,20.88
2019-05-30T03:28:37.593Z,29.65
2019-05-30T03:31:23.057Z,23.67
2019-05-30T03:33:46.823Z,20.70
2019-05-30T03:36:30.046Z,22.25
2019-05-30T03:38:55.254Z,19.52
2019-05-30T03:41:28.588Z,21.02
2019-05-30T03:44:03.843Z,20.08
2019-05-30T03:46:42.801Z,18.17
2019-05-30T03:49:21.876Z,14.15
2019-05-30T03:51:58.363Z,19.73
2019-05-30T03:54:32.809Z,13.93
2019-05-30T03:57:20.841Z,12.18
2019-05-30T04:00:08.529Z,9.95
2019-05-30T04:03:15.438Z,6.47
2019-05-30T04:05:56.741Z,5.87
2019-05-30T04:08:33.244Z,4.03
2019-05-30T04:11:11.971Z,3.77
2019-05-30T04:13:53.534Z,3.00
2019-05-30T04:16:27.499Z,3.33
2019-05-30T04:19:01.049Z,3.83
2019-05-30T04:21:35.964Z,4.40
2019-05-30T04:24:12.359Z,4.85
2019-05-30T04:26:45.613Z,5.08
2019-05-30T04:29:19.187Z,5.20
2019-05-30T04:31:52.699Z,5.60
2019-05-30T04:34:26.178Z,6.22
2019-05-30T04:36:59.656Z,5.20
2019-05-30T04:39:33.139Z,3.17
2019-05-30T04:42:06.677Z,3.45
2019-05-30T04:44:40.173Z,2.90
2019-05-30T04:47:14.265Z,2.90
2019-05-30T04:49:49.032Z,2.67
2019-05-30T04:52:24.749Z,2.50
2019-05-30T04:54:57.844Z,2.62
2019-05-30T04:57:31.624Z,4.58
2019-05-30T05:00:05.711Z,3.62
2019-05-30T05:02:39.599Z,4.70
2019-05-30T05:05:13.755Z,4.62
2019-05-30T05:07:50.667Z,3.87
2019-05-30T05:10:24.684Z,6.33
2019-05-30T05:12:58.171Z,4.87
2019-05-30T05:15:32.662Z,5.20
2019-05-30T05:18:06.699Z,5.65
2019-05-30T05:20:40.189Z,5.53
2019-05-30T05:23:13.634Z,5.50
2019-05-30T05:25:59.756Z,4.70
2019-05-30T05:28:22.210Z,4.60
2019-05-30T05:30:55.652Z,4.33
2019-05-30T05:33:29.133Z,4.53
2019-05-30T05:36:02.652Z,3.25
2019-05-30T05:38:36.208Z,2.45
2019-05-30T05:41:09.680Z,3.27
2019-05-30T05:43:43.171Z,2.65
2019-05-30T05:46:16.631Z,2.00
2019-05-30T05:48:50.125Z,3.45
2019-05-30T05:51:25.818Z,2.12
2019-05-30T05:53:59.352Z,2.83
2019-05-30T05:56:33.951Z,2.05
2019-05-30T05:59:07.467Z,2.62
2019-05-30T06:01:40.936Z,3.08
2019-05-30T06:04:14.453Z,2.67
2019-05-30T06:06:47.924Z,2.12
2019-05-30T06:09:22.594Z,2.80
2019-05-30T06:11:56.695Z,2.67
2019-05-30T06:14:30.198Z,3.08
2019-05-30T06:17:05.025Z,2.67
2019-05-30T06:19:46.275Z,3.00
2019-05-30T06:22:13.611Z,2.25
2019-05-30T06:24:47.135Z,2.20
2019-05-30T06:27:21.833Z,2.45
2019-05-30T06:29:55.406Z,1.87
2019-05-30T06:32:28.956Z,2.12
2019-05-30T06:35:03.490Z,2.25
2019-05-30T06:37:37.102Z,1.67
2019-05-30T06:40:11.157Z,2.50
2019-05-30T06:42:44.585Z,3.00
2019-05-30T06:45:20.927Z,2.20
2019-05-30T06:47:54.144Z,2.10
2019-05-30T06:50:29.035Z,2.10
2019-05-30T06:53:02.967Z,1.90
2019-05-30T06:55:37.424Z,2.02
2019-05-30T06:58:10.906Z,3.40
2019-05-30T07:00:45.782Z,2.05
2019-05-30T07:03:19.912Z,2.20
2019-05-30T07:05:53.829Z,2.05
2019-05-30T07:08:28.785Z,2.47
2019-05-30T07:11:02.525Z,2.27
2019-05-30T07:13:36.131Z,2.00
2019-05-30T07:16:09.996Z,3.33
2019-05-30T07:18:44.386Z,1.90
2019-05-30T07:21:17.860Z,2.40
2019-05-30T07:23:51.363Z,1.62
2019-05-30T07:26:25.869Z,1.67
2019-05-30T07:29:00.716Z,2.05
2019-05-30T07:31:34.527Z,1.62
2019-05-30T07:34:07.983Z,1.92
2019-05-30T07:36:41.895Z,1.40
2019-05-30T07:39:15.385Z,1.80
2019-05-30T07:42:04.996Z,1.35
2019-05-30T07:44:24.564Z,1.00
2019-05-30T07:46:59.204Z,3.12
2019-05-30T07:49:32.716Z,1.50
2019-05-30T07:52:06.850Z,1.47
2019-05-30T07:54:40.241Z,1.40
2019-05-30T07:57:13.711Z,1.02
2019-05-30T07:59:47.540Z,1.10
2019-05-30T08:02:21.245Z,0.93
2019-05-30T08:04:55.670Z,0.93
2019-05-30T08:07:29.148Z,1.20
2019-05-30T08:10:02.633Z,7.95
2019-05-30T08:12:36.265Z,5.60
2019-05-30T08:15:10.969Z,2.77
2019-05-30T08:17:49.946Z,2.30
2019-05-30T08:20:23.503Z,1.05
2019-05-30T08:22:56.975Z,0.70
2019-05-30T08:25:30.431Z,1.30
2019-05-30T08:28:03.865Z,4.80
2019-05-30T08:30:38.617Z,1.50
2019-05-30T08:33:12.229Z,1.70
2019-05-30T08:35:49.922Z,1.32
2019-05-30T08:38:21.097Z,1.75
2019-05-30T08:40:54.567Z,1.85
2019-05-30T08:43:29.223Z,2.05
2019-05-30T08:46:03.207Z,1.62
2019-05-30T08:48:36.754Z,1.98
2019-05-30T08:51:10.220Z,1.70
2019-05-30T08:53:43.701Z,1.35
2019-05-30T08:56:17.172Z,1.22
2019-05-30T08:58:50.814Z,1.05
2019-05-30T09:01:24.258Z,1.12
2019-05-30T09:03:58.313Z,3.33
2019-05-30T09:06:31.754Z,3.05
2019-05-30T09:09:06.806Z,1.85
2019-05-30T09:11:40.544Z,1.27
2019-05-30T09:14:14.105Z,2.20
2019-05-30T09:16:48.226Z,2.50
2019-05-30T09:19:22.809Z,1.77
2019-05-30T09:21:56.219Z,1.50
2019-05-30T09:24:29.665Z,1.42
2019-05-30T09:27:03.125Z,2.12
2019-05-30T09:29:37.898Z,1.50
2019-05-30T09:32:11.661Z,1.75
2019-05-30T09:34:46.997Z,1.52
2019-05-30T09:37:20.531Z,1.62
2019-05-30T09:39:54.458Z,1.15
2019-05-30T09:42:27.870Z,1.52
2019-05-30T09:45:01.177Z,1.12
2019-05-30T09:47:34.379Z,1.42
2019-05-30T09:50:08.055Z,1.82
2019-05-30T09:52:42.210Z,1.40
2019-05-30T09:55:18.266Z,1.40
2019-05-30T09:57:51.787Z,1.70
2019-05-30T10:00:27.433Z,1.47
2019-05-30T10:03:00.813Z,1.75
2019-05-30T10:05:34.291Z,1.25
2019-05-30T10:08:07.803Z,1.12
2019-05-30T10:10:43.829Z,1.20
2019-05-30T10:13:17.620Z,1.27
2019-05-30T10:15:52.717Z,1.25
2019-05-30T10:18:27.212Z,1.60
2019-05-30T10:21:00.773Z,1.32
2019-05-30T10:23:34.754Z,1.45
2019-05-30T10:26:08.464Z,1.45
2019-05-30T10:28:41.872Z,1.72
2019-05-30T10:31:15.304Z,1.52
2019-05-30T10:33:49.410Z,1.20
2019-05-30T10:36:23.260Z,1.60
2019-05-30T10:38:56.768Z,2.00
2019-05-30T10:41:30.633Z,1.40
2019-05-30T10:44:04.103Z,1.82
2019-05-30T10:46:37.627Z,1.80
2019-05-30T10:49:12.959Z,1.80
2019-05-30T10:51:47.776Z,1.50
2019-05-30T10:54:26.255Z,1.75
2019-05-30T10:57:00.873Z,1.47
2019-05-30T10:59:34.378Z,1.90
2019-05-30T11:02:12.204Z,1.47
2019-05-30T11:04:47.820Z,1.37
2019-05-30T11:07:33.798Z,1.37
2019-05-30T11:10:12.746Z,1.70
2019-05-30T11:12:46.662Z,1.62
2019-05-30T11:15:21.350Z,1.50
2019-05-30T11:17:56.186Z,2.52
2019-05-30T11:20:29.706Z,1.60
2019-05-30T11:23:03.040Z,1.30
2019-05-30T11:25:36.760Z,1.55
2019-05-30T11:28:10.360Z,1.85
2019-05-30T11:30:43.699Z,1.60
2019-05-30T11:33:17.085Z,1.50
2019-05-30T11:35:51.012Z,1.40
2019-05-30T11:38:24.413Z,1.52
2019-05-30T11:40:57.710Z,1.67
2019-05-30T11:43:31.077Z,1.45
2019-05-30T11:46:04.316Z,1.55
2019-05-30T11:48:37.647Z,1.30
2019-05-30T11:51:10.905Z,1.55
2019-05-30T11:53:44.149Z,1.60
2019-05-30T11:56:17.409Z,1.72
2019-05-30T11:58:51.941Z,1.55
2019-05-30T12:01:25.827Z,2.30
2019-05-30T12:04:00.678Z,1.72
2019-05-30T12:06:34.020Z,2.02
2019-05-30T12:09:09.025Z,2.17
2019-05-30T12:11:42.325Z,2.15
2019-05-30T12:14:15.494Z,1.80
2019-05-30T12:16:48.655Z,2.37
2019-05-30T12:19:21.881Z,1.95
2019-05-30T12:21:55.608Z,1.85
2019-05-30T12:24:29.303Z,2.10
2019-05-30T12:27:02.618Z,1.40
2019-05-30T12:29:35.969Z,1.90
2019-05-30T12:32:09.396Z,1.65
2019-05-30T12:34:42.770Z,1.45
2019-05-30T12:37:16.642Z,1.67
2019-05-30T12:39:50.136Z,1.70
2019-05-30T12:42:25.879Z,1.50
2019-05-30T12:44:59.353Z,2.08
2019-05-30T12:47:32.685Z,1.55
2019-05-30T12:50:07.817Z,1.75
2019-05-30T12:52:42.196Z,1.45
2019-05-30T12:55:15.943Z,1.37
2019-05-30T12:57:49.511Z,1.85
2019-05-30T13:00:26.989Z,1.70
2019-05-30T13:03:00.971Z,1.47
2019-05-30T13:05:34.368Z,1.77
2019-05-30T13:08:20.523Z,1.72
2019-05-30T13:10:44.229Z,1.50
2019-05-30T13:13:17.756Z,2.05
2019-05-30T13:15:54.590Z,1.90
2019-05-30T13:18:27.925Z,1.70
2019-05-30T13:21:02.154Z,1.72
2019-05-30T13:23:35.956Z,1.75
2019-05-30T13:26:09.649Z,2.15
2019-05-30T13:28:43.212Z,1.75
2019-05-30T13:31:16.834Z,1.75
2019-05-30T13:33:50.175Z,1.37
2019-05-30T13:36:23.718Z,1.47
2019-05-30T13:38:57.239Z,1.45
2019-05-30T13:41:30.824Z,1.67
2019-05-30T13:44:06.476Z,1.37
2019-05-30T13:46:38.911Z,1.32
2019-05-30T13:49:12.229Z,4.47
2019-05-30T13:51:45.571Z,1.50
2019-05-30T13:54:18.903Z,1.40
2019-05-30T13:56:52.205Z,1.57
2019-05-30T13:59:25.593Z,1.55
2019-05-30T14:01:59.839Z,1.12
2019-05-30T14:04:33.147Z,1.40
2019-05-30T14:07:06.531Z,1.40
2019-05-30T14:09:39.756Z,1.40
2019-05-30T14:12:13.022Z,1.52
2019-05-30T14:14:46.244Z,1.47
2019-05-30T14:17:19.637Z,1.47
2019-05-30T14:19:52.907Z,1.37
2019-05-30T14:22:26.172Z,1.95
2019-05-30T14:24:59.627Z,1.60
2019-05-30T14:27:34.214Z,1.85
2019-05-30T14:30:09.172Z,1.32
2019-05-30T14:32:42.415Z,1.15
2019-05-30T14:35:17.732Z,1.60
2019-05-30T14:37:51.077Z,1.50
2019-05-30T14:40:24.510Z,1.50
2019-05-30T14:42:57.773Z,1.87
2019-05-30T14:45:30.921Z,1.70
2019-05-30T14:48:04.529Z,1.40
2019-05-30T14:50:37.796Z,1.42
2019-05-30T14:53:11.063Z,1.40
2019-05-30T14:55:44.190Z,1.25
2019-05-30T14:58:17.854Z,1.32
2019-05-30T15:00:51.018Z,1.45
2019-05-30T15:03:24.401Z,1.50
2019-05-30T15:05:57.750Z,1.67
2019-05-30T15:08:31.112Z,1.42
2019-05-30T15:11:05.422Z,2.00
2019-05-30T15:13:38.811Z,1.40
2019-05-30T15:16:13.030Z,1.62
2019-05-30T15:18:46.445Z,1.37
2019-05-30T15:21:19.670Z,1.52
2019-05-30T15:23:53.183Z,2.15
2019-05-30T15:26:26.613Z,1.12
2019-05-30T15:29:00.079Z,1.40
2019-05-30T15:31:33.558Z,1.60
2019-05-30T15:34:08.386Z,1.25
2019-05-30T15:36:44.498Z,1.27
2019-05-30T15:39:30.687Z,1.37
2019-05-30T15:41:53.096Z,1.25
2019-05-30T15:44:26.629Z,1.50
2019-05-30T15:47:00.448Z,1.27
2019-05-30T15:49:33.896Z,1.27
2019-05-30T15:52:08.689Z,1.90
2019-05-30T15:54:42.161Z,1.22
2019-05-30T15:57:15.696Z,1.80
2019-05-30T15:59:48.924Z,1.40
2019-05-30T16:02:22.066Z,2.65
2019-05-30T16:04:55.509Z,1.60
2019-05-30T16:07:28.997Z,1.65
2019-05-30T16:10:02.363Z,1.62
2019-05-30T16:12:35.663Z,1.80
2019-05-30T16:15:09.740Z,2.08
2019-05-30T16:17:42.959Z,1.45
2019-05-30T16:20:17.894Z,1.60
2019-05-30T16:22:51.280Z,1.67
2019-05-30T16:25:24.506Z,1.55
2019-05-30T16:27:57.582Z,1.50
2019-05-30T16:30:30.924Z,1.82
2019-05-30T16:33:04.366Z,1.45
2019-05-30T16:35:37.761Z,1.87
2019-05-30T16:38:11.179Z,1.55
2019-05-30T16:40:45.455Z,1.50
2019-05-30T16:43:18.721Z,1.52
2019-05-30T16:45:52.011Z,1.40
2019-05-30T16:48:25.310Z,1.67
2019-05-30T16:50:58.636Z,1.72
2019-05-30T16:53:31.887Z,1.72
2019-05-30T16:56:05.366Z,1.60
2019-05-30T16:58:38.614Z,1.50
2019-05-30T17:01:11.862Z,1.80
2019-05-30T17:03:45.238Z,1.60
2019-05-30T17:06:18.588Z,1.42
2019-05-30T17:08:51.887Z,2.33
2019-05-30T17:11:25.615Z,1.75
2019-05-30T17:13:59.150Z,2.80
2019-05-30T17:16:32.439Z,2.85
2019-05-30T17:19:06.758Z,1.40
2019-05-30T17:21:40.156Z,1.90
2019-05-30T17:24:13.715Z,1.90
2019-05-30T17:26:51.228Z,1.57
2019-05-30T17:29:23.556Z,1.80
2019-05-30T17:31:57.126Z,1.42
2019-05-30T17:34:30.482Z,1.42
2019-05-30T17:37:04.052Z,1.70
2019-05-30T17:39:37.481Z,1.95
2019-05-30T17:42:10.808Z,2.58
2019-05-30T17:44:46.649Z,2.02
2019-05-30T17:47:23.876Z,4.53
2019-05-30T17:50:17.329Z,3.05
2019-05-30T17:52:54.306Z,2.10
2019-05-30T17:55:28.010Z,2.10
2019-05-30T17:58:01.508Z,2.40
2019-05-30T18:00:34.884Z,2.20
2019-05-30T18:03:08.103Z,2.60
2019-05-30T18:05:41.350Z,2.70
2019-05-30T18:08:14.683Z,2.45
2019-05-30T18:10:53.836Z,3.17
2019-05-30T18:13:23.039Z,2.50
2019-05-30T18:15:56.334Z,2.37
2019-05-30T18:18:29.550Z,2.80
2019-05-30T18:21:02.904Z,2.27
2019-05-30T18:23:36.329Z,2.40
2019-05-30T18:26:09.523Z,2.33
2019-05-30T18:28:42.767Z,2.70
2019-05-30T18:31:16.012Z,3.45
2019-05-30T18:33:49.358Z,3.75
2019-05-30T18:36:22.600Z,2.90
2019-05-30T18:38:55.946Z,2.60
2019-05-30T18:41:29.137Z,2.90
2019-05-30T18:44:02.489Z,3.37
2019-05-30T18:46:38.559Z,3.87
2019-05-30T18:49:10.759Z,5.08
2019-05-30T18:51:44.135Z,8.53
2019-05-30T18:54:17.519Z,6.28
2019-05-30T18:56:51.033Z,5.17
2019-05-30T18:59:25.469Z,4.17
2019-05-30T19:01:58.914Z,4.05
2019-05-30T19:04:33.580Z,4.05
2019-05-30T19:07:07.177Z,5.05
2019-05-30T19:09:40.660Z,6.40
2019-05-30T19:12:14.834Z,5.50
2019-05-30T19:14:48.262Z,5.10
2019-05-30T19:17:21.401Z,6.45
2019-05-30T19:19:54.673Z,5.97
2019-05-30T19:22:28.431Z,7.45
2019-05-30T19:25:02.208Z,8.93
2019-05-30T19:27:37.109Z,7.42
2019-05-30T19:30:18.236Z,7.33
2019-05-30T19:32:52.241Z,7.05
2019-05-30T19:35:28.878Z,7.00
2019-05-30T19:38:00.794Z,7.72
2019-05-30T19:40:34.294Z,7.53
2019-05-30T19:43:07.718Z,9.40
2019-05-30T19:45:41.162Z,9.35
2019-05-30T19:48:14.493Z,8.55
2019-05-30T19:50:48.019Z,7.83
2019-05-30T19:53:21.378Z,8.93
2019-05-30T19:55:54.753Z,8.38
2019-05-30T19:58:29.434Z,9.98
2019-05-30T20:01:03.900Z,10.72
2019-05-30T20:03:43.579Z,10.00
2019-05-30T20:06:12.338Z,10.63
2019-05-30T20:08:55.103Z,11.63
2019-05-30T20:11:20.956Z,10.75
2019-05-30T20:13:54.257Z,10.43
2019-05-30T20:16:27.639Z,10.45
2019-05-30T20:19:01.069Z,10.85
2019-05-30T20:21:35.671Z,12.78
2019-05-30T20:24:09.194Z,11.80
2019-05-30T20:26:42.832Z,11.90
2019-05-30T20:29:17.501Z,11.75
2019-05-30T20:31:51.120Z,11.53
2019-05-30T20:34:24.381Z,11.10
2019-05-30T20:36:57.786Z,10.00
2019-05-30T20:39:31.175Z,9.73
2019-05-30T20:42:18.309Z,10.68
2019-05-30T20:44:39.397Z,9.83
2019-05-30T20:47:12.760Z,9.00
2019-05-30T20:49:47.499Z,8.95
2019-05-30T20:52:21.048Z,10.38
2019-05-30T20:54:55.480Z,10.90
2019-05-30T20:57:28.990Z,10.35
2019-05-30T21:00:02.514Z,10.28
2019-05-30T21:02:38.747Z,9.45
2019-05-30T21:05:13.429Z,10.40
2019-05-30T21:07:47.641Z,10.60
2019-05-30T21:10:22.846Z,11.55
2019-05-30T21:12:59.188Z,21.12
2019-05-30T21:15:37.452Z,25.12
2019-05-30T21:18:11.006Z,21.95
2019-05-30T21:20:44.497Z,14.73
2019-05-30T21:23:18.011Z,12.40
2019-05-30T21:25:52.512Z,13.93
2019-05-30T21:28:26.052Z,19.02
2019-05-30T21:30:59.965Z,21.27
2019-05-30T21:33:33.546Z,21.73
2019-05-30T21:36:06.966Z,19.32
2019-05-30T21:38:40.466Z,18.75
2019-05-30T21:41:14.019Z,17.00
2019-05-30T21:43:49.160Z,14.23
2019-05-30T21:46:22.667Z,15.32
2019-05-30T21:48:56.506Z,20.27
2019-05-30T21:51:31.205Z,21.65
2019-05-30T21:54:08.046Z,21.87
2019-05-30T21:56:43.656Z,22.17
2019-05-30T21:59:19.065Z,20.85
2019-05-30T22:01:57.185Z,19.42
2019-05-30T22:04:27.618Z,17.32
2019-05-30T22:07:01.084Z,15.60
2019-05-30T22:09:34.599Z,15.53
2019-05-30T22:12:08.622Z,16.17
2019-05-30T22:14:42.105Z,14.40
2019-05-30T22:17:15.538Z,15.30
2019-05-30T22:19:50.034Z,16.48
2019-05-30T22:22:23.614Z,14.73
2019-05-30T22:24:57.578Z,14.47
2019-05-30T22:27:31.029Z,14.33
2019-05-30T22:30:05.096Z,12.03
2019-05-30T22:32:38.629Z,13.70
2019-05-30T22:35:12.328Z,13.93
2019-05-30T22:37:46.802Z,10.78
2019-05-30T22:40:20.322Z,11.75
2019-05-30T22:42:54.600Z,12.18
2019-05-30T22:45:28.063Z,13.00
2019-05-30T22:48:01.514Z,15.30
2019-05-30T22:50:35.122Z,13.25
2019-05-30T22:53:08.656Z,11.48
2019-05-30T22:55:42.236Z,12.20
2019-05-30T22:58:15.692Z,13.45
2019-05-30T23:00:49.965Z,12.40
2019-05-30T23:03:24.687Z,9.48
2019-05-30T23:05:58.592Z,8.75
2019-05-30T23:08:32.180Z,8.00
2019-05-30T23:11:06.342Z,7.67
2019-05-30T23:13:40.941Z,9.78
2019-05-30T23:16:14.656Z,10.78
2019-05-30T23:18:48.409Z,11.55
2019-05-30T23:21:21.887Z,11.05
2019-05-30T23:23:55.397Z,10.35
2019-05-30T23:26:28.805Z,10.23
2019-05-30T23:29:02.270Z,10.75
2019-05-30T23:31:35.632Z,12.80
2019-05-30T23:34:08.971Z,13.00
2019-05-30T23:36:42.227Z,15.30
2019-05-30T23:39:15.510Z,13.35
2019-05-30T23:41:48.941Z,12.30
2019-05-30T23:44:24.175Z,10.75
2019-05-30T23:46:57.933Z,13.38
2019-05-30T23:49:31.214Z,13.38
2019-05-30T23:52:04.588Z,13.98
2019-05-30T23:54:37.845Z,14.30
2019-05-30T23:57:11.096Z,13.30
2019-05-30T23:59:44.447Z,13.80
